createdAt,value
2018-03-30T00:00:52.552Z,85.12
2018-03-30T00:02:02.623Z,84.92
2018-03-30T00:03:12.753Z,85.21
2018-03-30T00:04:22.829Z,84.83
2018-03-30T00:05:32.644Z,85.02
2018-03-30T00:06:42.706Z,84.83
2018-03-30T00:07:52.524Z,84.83
2018-03-30T00:09:02.645Z,84.97
2018-03-30T00:10:12.442Z,84.69
2018-03-30T00:11:22.516Z,84.69
2018-03-30T00:12:32.598Z,84.88
2018-03-30T00:13:42.655Z,85.06
2018-03-30T00:14:52.784Z,85.06
2018-03-30T00:16:02.879Z,84.97
2018-03-30T00:17:12.951Z,84.69
2018-03-30T00:18:22.774Z,85.02
2018-03-30T00:19:32.600Z,84.74
2018-03-30T00:20:42.731Z,84.88
2018-03-30T00:21:52.813Z,84.83
2018-03-30T00:23:02.355Z,84.97
2018-03-30T00:24:12.439Z,85.06
2018-03-30T00:25:22.243Z,85.16
2018-03-30T00:26:32.313Z,84.88
2018-03-30T00:27:42.382Z,85.06
2018-03-30T00:28:52.196Z,84.97
2018-03-30T00:30:02.007Z,85.06
2018-03-30T00:31:11.813Z,84.59
2018-03-30T00:32:21.868Z,85.06
2018-03-30T00:33:31.697Z,85.06
2018-03-30T00:34:41.498Z,85.06
2018-03-30T00:35:51.310Z,84.97
2018-03-30T00:37:01.111Z,84.88
2018-03-30T00:38:11.203Z,84.88
2018-03-30T00:39:20.778Z,85.16
2018-03-30T00:40:30.848Z,85.02
2018-03-30T00:41:40.921Z,85.41
2018-03-30T00:42:50.987Z,85.5
2018-03-30T00:44:00.576Z,84.92
2018-03-30T00:45:10.386Z,85.41
2018-03-30T00:46:20.196Z,85.02
2018-03-30T00:47:30.271Z,85.02
2018-03-30T00:48:40.074Z,84.92
2018-03-30T00:49:50.134Z,84.92
2018-03-30T00:50:59.941Z,85.31
2018-03-30T00:52:09.478Z,85.31
2018-03-30T00:53:19.540Z,84.92
2018-03-30T00:54:29.596Z,85.12
2018-03-30T00:55:39.133Z,84.92
2018-03-30T00:56:49.211Z,84.92
2018-03-30T00:57:59.288Z,85.21
2018-03-30T00:59:09.366Z,85.12
2018-03-30T01:00:19.170Z,85.12
2018-03-30T01:01:28.757Z,85.12
2018-03-30T01:02:38.878Z,84.92
2018-03-30T01:03:48.946Z,85.02
2018-03-30T01:04:59.021Z,85.02
2018-03-30T01:06:09.129Z,85.02
2018-03-30T01:07:19.243Z,85.02
2018-03-30T01:08:29.316Z,85.21
2018-03-30T01:09:39.122Z,85.02
2018-03-30T01:10:49.227Z,85.02
2018-03-30T01:11:58.770Z,85.02
2018-03-30T01:13:08.833Z,85.12
2018-03-30T01:14:18.637Z,84.92
2018-03-30T01:15:28.451Z,84.92
2018-03-30T01:16:38.250Z,85.31
2018-03-30T01:17:48.321Z,85.41
2018-03-30T01:18:58.108Z,85.41
2018-03-30T01:20:07.919Z,85.21
2018-03-30T01:21:17.710Z,85.21
2018-03-30T01:22:27.499Z,85.21
2018-03-30T01:23:37.308Z,85.41
2018-03-30T01:24:47.388Z,84.92
2018-03-30T01:25:57.468Z,85.02
2018-03-30T01:27:07.520Z,85.21
2018-03-30T01:28:17.327Z,85.12
2018-03-30T01:29:27.378Z,85.21
2018-03-30T01:30:37.456Z,85.6
2018-03-30T01:31:47.249Z,85.08
2018-03-30T01:32:57.050Z,85.08
2018-03-30T01:34:06.587Z,85.27
2018-03-30T01:35:16.113Z,85.17
2018-03-30T01:36:25.955Z,85.36
2018-03-30T01:37:35.766Z,85.17
2018-03-30T01:38:45.052Z,84.98
2018-03-30T01:39:54.603Z,84.98
2018-03-30T01:41:04.661Z,85.36
2018-03-30T01:42:14.734Z,85.36
2018-03-30T01:43:24.805Z,85.17
2018-03-30T01:44:34.885Z,84.98
2018-03-30T01:45:44.681Z,84.98
2018-03-30T01:46:54.734Z,85.08
2018-03-30T01:48:04.547Z,85.17
2018-03-30T01:49:14.357Z,85.27
2018-03-30T01:50:24.417Z,85.17
2018-03-30T01:51:34.469Z,84.98
2018-03-30T01:52:44.540Z,85.17
2018-03-30T01:53:54.341Z,85.27
2018-03-30T01:55:04.168Z,85.17
2018-03-30T01:56:14.244Z,85.17
2018-03-30T01:57:24.302Z,85.17
2018-03-30T01:58:34.373Z,85.08
2018-03-30T01:59:43.982Z,85.08
2018-03-30T02:00:53.817Z,85.17
2018-03-30T02:02:03.899Z,84.98
2018-03-30T02:03:13.167Z,84.98
2018-03-30T02:04:23.237Z,85.08
2018-03-30T02:05:33.092Z,84.98
2018-03-30T02:06:43.146Z,84.88
2018-03-30T02:07:53.202Z,84.98
2018-03-30T02:09:03.265Z,84.79
2018-03-30T02:10:13.341Z,84.98
2018-03-30T02:11:23.488Z,84.98
2018-03-30T02:12:33.294Z,84.98
2018-03-30T02:13:43.375Z,84.88
2018-03-30T02:14:53.438Z,84.84
2018-03-30T02:16:03.539Z,85.08
2018-03-30T02:17:13.590Z,85.17
2018-03-30T02:18:23.644Z,85.51
2018-03-30T02:19:33.470Z,84.94
2018-03-30T02:20:43.532Z,84.94
2018-03-30T02:21:53.347Z,85.22
2018-03-30T02:23:02.629Z,85.32
2018-03-30T02:24:12.693Z,85.32
2018-03-30T02:25:22.778Z,85.03
2018-03-30T02:26:32.840Z,85.32
2018-03-30T02:27:42.635Z,85.51
2018-03-30T02:28:52.767Z,85.32
2018-03-30T02:30:02.825Z,84.94
2018-03-30T02:31:12.650Z,84.94
2018-03-30T02:32:22.734Z,85.32
2018-03-30T02:33:32.282Z,84.94
2018-03-30T02:34:42.380Z,85.13
2018-03-30T02:35:52.254Z,85.03
2018-03-30T02:37:02.334Z,85.13
2018-03-30T02:38:12.453Z,84.84
2018-03-30T02:39:22.524Z,84.94
2018-03-30T02:40:32.602Z,84.94
2018-03-30T02:41:42.413Z,84.75
2018-03-30T02:42:52.485Z,84.75
2018-03-30T02:44:02.044Z,84.84
2018-03-30T02:45:12.120Z,84.94
2018-03-30T02:46:22.322Z,84.84
2018-03-30T02:47:32.389Z,84.75
2018-03-30T02:48:42.462Z,84.94
2018-03-30T02:49:52.551Z,84.75
2018-03-30T02:51:02.613Z,84.84
2018-03-30T02:52:12.690Z,84.65
2018-03-30T02:53:22.767Z,84.75
2018-03-30T02:54:32.578Z,84.75
2018-03-30T02:55:42.148Z,84.84
2018-03-30T02:56:52.233Z,84.27
2018-03-30T02:58:01.778Z,84.46
2018-03-30T02:59:11.858Z,84.65
2018-03-30T03:00:21.974Z,84.65
2018-03-30T03:01:32.069Z,84.65
2018-03-30T03:02:42.142Z,84.56
2018-03-30T03:03:52.272Z,84.17
2018-03-30T03:05:02.085Z,84.56
2018-03-30T03:36:30.915Z,81.97
2018-03-30T03:37:40.705Z,82.07
2018-03-30T03:38:50.517Z,82.31
2018-03-30T03:40:00.566Z,83.26
2018-03-30T03:41:10.632Z,84.01
2018-03-30T03:42:20.456Z,84.68
2018-03-30T03:43:30.270Z,85.2
2018-03-30T03:44:40.341Z,85.77
2018-03-30T03:45:49.880Z,85.96
2018-03-30T03:46:59.685Z,86.24
2018-03-30T03:48:08.998Z,86.43
2018-03-30T03:49:19.048Z,85.86
2018-03-30T03:50:28.834Z,86.05
2018-03-30T03:51:38.915Z,86.47
2018-03-30T03:52:48.992Z,86.1
2018-03-30T03:53:59.114Z,85.81
2018-03-30T03:55:08.653Z,86.1
2018-03-30T03:56:18.448Z,86.1
2018-03-30T03:57:28.236Z,85.95
2018-03-30T03:58:37.784Z,85.76
2018-03-30T03:59:47.064Z,85.57
2018-03-30T04:00:56.349Z,85.38
2018-03-30T04:02:06.190Z,85.38
2018-03-30T04:03:15.993Z,85.76
2018-03-30T04:04:25.261Z,85.38
2018-03-30T04:05:35.063Z,85.57
2018-03-30T04:06:45.134Z,85.28
2018-03-30T04:07:55.199Z,85
2018-03-30T04:09:05.258Z,84.91
2018-03-30T04:10:14.548Z,84.91
2018-03-30T04:11:24.661Z,85.1
2018-03-30T04:12:34.463Z,84.91
2018-03-30T04:13:44.000Z,84.91
2018-03-30T04:14:53.819Z,84.91
2018-03-30T04:16:03.641Z,84.81
2018-03-30T04:17:13.725Z,85.19
2018-03-30T04:18:23.792Z,84.91
2018-03-30T04:19:33.848Z,84.76
2018-03-30T04:20:43.644Z,84.66
2018-03-30T04:21:53.707Z,84.66
2018-03-30T04:23:03.825Z,84.66
2018-03-30T04:24:13.355Z,84.28
2018-03-30T04:25:22.896Z,84.19
2018-03-30T04:26:32.715Z,84.09
2018-03-30T04:27:42.535Z,84.19
2018-03-30T04:28:52.651Z,84.28
2018-03-30T04:30:02.448Z,84.47
2018-03-30T04:31:12.252Z,84.56
2018-03-30T04:32:21.788Z,84.47
2018-03-30T04:33:31.320Z,84.56
2018-03-30T04:34:40.866Z,84.66
2018-03-30T04:35:50.657Z,84.56
2018-03-30T04:37:00.725Z,84.28
2018-03-30T04:38:10.536Z,84
2018-03-30T04:39:20.084Z,84.28
2018-03-30T04:40:29.926Z,83.9
2018-03-30T04:41:40.056Z,83.9
2018-03-30T04:42:50.137Z,84.23
2018-03-30T04:43:59.666Z,83.81
2018-03-30T04:45:09.480Z,84.04
2018-03-30T04:46:19.331Z,84
2018-03-30T04:47:29.142Z,84.38
2018-03-30T04:48:39.212Z,84.38
2018-03-30T04:49:49.054Z,84.38
2018-03-30T04:50:59.166Z,83.81
2018-03-30T04:52:09.239Z,83.94
2018-03-30T04:53:19.039Z,83.09
2018-03-30T04:54:28.577Z,83.47
2018-03-30T04:55:38.650Z,83.13
2018-03-30T04:56:48.479Z,83.22
2018-03-30T04:57:58.279Z,83.41
2018-03-30T04:59:08.071Z,83.41
2018-03-30T05:00:17.868Z,83.61
2018-03-30T05:01:27.146Z,82.93
2018-03-30T05:02:37.215Z,83.13
2018-03-30T05:03:47.026Z,82.84
2018-03-30T05:04:57.085Z,82.69
2018-03-30T05:06:07.152Z,82.41
2018-03-30T05:07:17.221Z,82.12
2018-03-30T05:08:27.014Z,82.07
2018-03-30T05:09:36.803Z,82.26
2018-03-30T05:10:46.879Z,82.45
2018-03-30T05:11:56.953Z,82.54
2018-03-30T05:13:06.498Z,83.59
2018-03-30T05:14:16.304Z,83.59
2018-03-30T05:15:26.366Z,83.97
2018-03-30T05:16:36.219Z,84.5
2018-03-30T05:17:45.742Z,84.5
2018-03-30T05:18:55.550Z,85.27
2018-03-30T05:20:05.619Z,85.27
2018-03-30T05:21:15.765Z,85.17
2018-03-30T05:22:25.303Z,84.98
2018-03-30T05:23:35.096Z,85.08
2018-03-30T05:24:45.160Z,85.17
2018-03-30T05:25:55.000Z,85.13
2018-03-30T05:27:05.055Z,85.08
2018-03-30T05:28:14.841Z,84.69
2018-03-30T05:29:24.651Z,84.5
2018-03-30T05:30:34.198Z,84.69
2018-03-30T05:31:43.999Z,83.84
2018-03-30T05:32:54.123Z,84.31
2018-03-30T05:34:03.713Z,83.59
2018-03-30T05:35:13.535Z,83.21
2018-03-30T05:36:23.588Z,83.4
2018-03-30T05:37:33.658Z,83.31
2018-03-30T05:38:43.250Z,83.5
2018-03-30T05:39:53.047Z,83.69
2018-03-30T05:41:02.571Z,83.64
2018-03-30T05:42:12.367Z,83.44
2018-03-30T05:43:22.176Z,83.92
2018-03-30T05:44:32.229Z,83.44
2018-03-30T05:45:42.295Z,83.64
2018-03-30T05:46:52.349Z,83.35
2018-03-30T05:48:01.884Z,83.25
2018-03-30T05:49:11.958Z,83.35
2018-03-30T05:50:21.758Z,83.35
2018-03-30T05:51:31.829Z,83.64
2018-03-30T05:52:41.632Z,83.54
2018-03-30T05:53:51.164Z,84.2
2018-03-30T05:55:00.695Z,83.64
2018-03-30T05:56:10.772Z,84.4
2018-03-30T05:57:20.879Z,83.73
2018-03-30T05:58:30.938Z,83.83
2018-03-30T05:59:40.740Z,83.64
2018-03-30T06:00:50.807Z,83.73
2018-03-30T06:02:00.930Z,83.25
2018-03-30T06:03:10.999Z,83.25
2018-03-30T06:04:20.536Z,83.35
2018-03-30T06:05:30.332Z,83.35
2018-03-30T06:06:40.421Z,83.44
2018-03-30T06:07:50.261Z,83.39
2018-03-30T06:09:00.317Z,83.58
2018-03-30T06:10:10.114Z,83.48
2018-03-30T06:11:19.661Z,83.2
2018-03-30T06:12:29.496Z,83.58
2018-03-30T06:13:38.766Z,83.2
2018-03-30T06:14:48.305Z,83.29
2018-03-30T06:15:58.371Z,83.39
2018-03-30T06:17:08.438Z,83.48
2018-03-30T06:18:18.255Z,83.48
2018-03-30T06:19:28.336Z,83.29
2018-03-30T06:20:38.387Z,83.39
2018-03-30T06:21:48.183Z,83.39
2018-03-30T06:22:57.697Z,83.29
2018-03-30T06:24:07.243Z,83.48
2018-03-30T06:25:17.057Z,83.2
2018-03-30T06:26:26.861Z,83.05
2018-03-30T06:27:36.396Z,83.39
2018-03-30T06:28:45.936Z,82.76
2018-03-30T06:29:55.750Z,82.76
2018-03-30T06:31:05.815Z,83.05
2018-03-30T06:32:15.105Z,82.29
2018-03-30T06:33:25.351Z,82.32
2018-03-30T06:34:35.164Z,82.42
2018-03-30T06:35:45.246Z,83.05
2018-03-30T06:36:54.789Z,82.9
2018-03-30T06:38:04.581Z,82.71
2018-03-30T06:39:14.397Z,83.67
2018-03-30T06:40:24.463Z,83.09
2018-03-30T06:41:34.524Z,83.67
2018-03-30T06:42:44.573Z,83.43
2018-03-30T06:43:54.115Z,83.53
2018-03-30T06:45:04.189Z,83.72
2018-03-30T06:46:14.292Z,83.72
2018-03-30T06:47:24.368Z,83.81
2018-03-30T06:48:34.180Z,83.72
2018-03-30T06:49:43.982Z,83.81
2018-03-30T06:50:54.164Z,83.81
2018-03-30T06:52:04.293Z,83.24
2018-03-30T06:53:14.377Z,83.43
2018-03-30T06:54:24.177Z,83.47
2018-03-30T06:55:34.250Z,83.38
2018-03-30T06:56:44.323Z,83.47
2018-03-30T06:57:54.171Z,83.76
2018-03-30T06:59:03.987Z,83.47
2018-03-30T07:00:13.533Z,83.38
2018-03-30T07:01:23.650Z,83.86
2018-03-30T07:02:33.442Z,83.47
2018-03-30T07:03:43.256Z,82.9
2018-03-30T07:04:53.331Z,83.23
2018-03-30T07:06:03.203Z,82.28
2018-03-30T07:07:13.082Z,82.51
2018-03-30T07:08:23.144Z,82.7
2018-03-30T07:09:32.690Z,82.31
2018-03-30T07:10:42.495Z,82.03
2018-03-30T07:11:52.300Z,82.26
2018-03-30T07:13:02.372Z,81.4
2018-03-30T07:14:12.174Z,81.59
2018-03-30T07:15:22.292Z,81.78
2018-03-30T07:16:32.361Z,81.44
2018-03-30T07:17:42.451Z,82.49
2018-03-30T07:18:52.010Z,82.4
2018-03-30T07:20:01.317Z,82.49
2018-03-30T07:21:10.858Z,82.53
2018-03-30T07:22:20.651Z,82.43
2018-03-30T07:23:30.448Z,81.48
2018-03-30T07:24:40.284Z,82.24
2018-03-30T07:25:49.575Z,81.71
2018-03-30T07:26:59.120Z,81.71
2018-03-30T07:28:09.182Z,81.37
2018-03-30T07:29:19.299Z,81.18
2018-03-30T07:30:29.112Z,81.56
2018-03-30T07:31:39.185Z,81.79
2018-03-30T07:32:49.312Z,81.7
2018-03-30T07:33:59.403Z,81.7
2018-03-30T07:35:09.211Z,81.89
2018-03-30T07:36:18.777Z,81.98
2018-03-30T07:37:28.574Z,81.95
2018-03-30T07:38:38.389Z,82.42
2018-03-30T07:39:47.931Z,82.52
2018-03-30T07:40:58.027Z,82.32
2018-03-30T07:42:07.841Z,83
2018-03-30T07:43:17.417Z,82.29
2018-03-30T07:44:27.496Z,82.57
2018-03-30T07:45:37.568Z,83.05
2018-03-30T07:46:47.387Z,83.53
2018-03-30T07:47:57.193Z,83.15
2018-03-30T07:49:07.337Z,83.34
2018-03-30T07:50:17.143Z,82.76
2018-03-30T07:51:27.216Z,82.57
2018-03-30T07:52:37.298Z,82.57
2018-03-30T07:53:47.099Z,82.96
2018-03-30T07:54:56.884Z,82.67
2018-03-30T07:56:06.681Z,82.52
2018-03-30T07:57:16.738Z,82.62
2018-03-30T07:58:26.836Z,82.71
2018-03-30T07:59:36.642Z,82.71
2018-03-30T08:00:46.707Z,82.32
2018-03-30T08:01:56.843Z,82.86
2018-03-30T08:03:06.120Z,82.86
2018-03-30T08:04:15.948Z,82.76
2018-03-30T08:05:25.791Z,82.81
2018-03-30T08:06:35.599Z,82.86
2018-03-30T08:07:45.399Z,82.96
2018-03-30T08:08:55.230Z,82.9
2018-03-30T08:10:05.392Z,82.9
2018-03-30T08:11:15.449Z,82.32
2018-03-30T08:12:25.523Z,82.23
2018-03-30T08:13:35.600Z,82.42
2018-03-30T08:14:45.406Z,82.52
2018-03-30T08:15:55.687Z,82.81
2018-03-30T08:17:05.613Z,82.81
2018-03-30T08:18:15.687Z,83.19
2018-03-30T08:19:25.567Z,83.09
2018-03-30T08:20:35.374Z,83.19
2018-03-30T08:21:45.471Z,82.81
2018-03-30T08:22:55.542Z,82.9
2018-03-30T08:24:05.637Z,82.71
2018-03-30T08:25:15.452Z,83.29
2018-03-30T08:26:25.534Z,82.71
2018-03-30T08:27:35.356Z,82.81
2018-03-30T08:28:45.437Z,82.71
2018-03-30T08:29:55.257Z,82.71
2018-03-30T08:31:05.349Z,82.52
2018-03-30T08:32:15.172Z,82.81
2018-03-30T08:33:24.983Z,82.18
2018-03-30T08:34:34.800Z,82.46
2018-03-30T08:35:44.440Z,82.18
2018-03-30T08:36:54.501Z,82.37
2018-03-30T08:38:04.301Z,81.98
2018-03-30T08:39:14.368Z,82.56
2018-03-30T08:40:24.196Z,81.6
2018-03-30T08:41:34.266Z,82.18
2018-03-30T08:42:44.068Z,82.08
2018-03-30T08:43:54.136Z,81.7
2018-03-30T08:45:04.202Z,81.98
2018-03-30T08:46:14.293Z,81.89
2018-03-30T08:47:24.365Z,82.65
2018-03-30T08:48:34.427Z,82.52
2018-03-30T08:49:44.223Z,83.53
2018-03-30T08:50:54.294Z,83.87
2018-03-30T08:52:04.386Z,83.53
2018-03-30T08:53:14.188Z,84.26
2018-03-30T08:54:23.998Z,83.15
2018-03-30T08:55:34.087Z,82.57
2018-03-30T08:56:43.893Z,82.86
2018-03-30T08:57:53.710Z,82.67
2018-03-30T08:59:03.813Z,82.62
2018-03-30T09:00:13.603Z,82.81
2018-03-30T09:01:23.166Z,82.81
2018-03-30T09:02:33.032Z,82.57
2018-03-30T09:03:42.849Z,82.71
2018-03-30T09:04:53.014Z,83.53
2018-03-30T09:06:02.568Z,83.63
2018-03-30T09:07:12.691Z,83.92
2018-03-30T09:08:22.502Z,82.96
2018-03-30T09:09:32.063Z,83.34
2018-03-30T09:10:41.616Z,83.25
2018-03-30T09:11:51.427Z,83.15
2018-03-30T09:13:00.952Z,82.96
2018-03-30T09:14:10.491Z,83.05
2018-03-30T09:15:20.557Z,82.76
2018-03-30T09:16:30.637Z,83.05
2018-03-30T09:17:40.432Z,83.09
2018-03-30T09:18:50.495Z,82.42
2018-03-30T09:20:00.592Z,82.27
2018-03-30T09:21:10.662Z,81.89
2018-03-30T09:22:20.769Z,81.64
2018-03-30T09:23:30.322Z,81.45
2018-03-30T09:24:40.160Z,81.45
2018-03-30T09:25:49.696Z,81.74
2018-03-30T09:26:59.497Z,81.68
2018-03-30T09:28:09.390Z,82.03
2018-03-30T09:29:19.474Z,81.01
2018-03-30T09:30:28.996Z,80.73
2018-03-30T09:31:39.060Z,80.28
2018-03-30T09:32:48.633Z,80.47
2018-03-30T09:33:58.480Z,80.42
2018-03-30T09:35:08.540Z,80.32
2018-03-30T09:36:18.354Z,80.57
2018-03-30T09:37:28.431Z,80.66
2018-03-30T09:38:37.966Z,81.24
2018-03-30T09:39:48.051Z,81.43
2018-03-30T09:40:58.134Z,81.78
2018-03-30T09:42:08.212Z,81.05
2018-03-30T09:43:18.302Z,81.05
2018-03-30T09:44:27.843Z,81.15
2018-03-30T09:45:37.679Z,81.63
2018-03-30T09:46:47.524Z,82.35
2018-03-30T09:47:57.072Z,82.26
2018-03-30T09:49:06.894Z,82.07
2018-03-30T09:50:16.985Z,81.68
2018-03-30T09:51:27.062Z,80.47
2018-03-30T09:52:37.163Z,80.42
2018-03-30T09:53:46.701Z,80.51
2018-03-30T09:54:56.779Z,80.8
2018-03-30T09:56:06.846Z,81.15
2018-03-30T09:57:16.918Z,81.53
2018-03-30T09:58:27.192Z,81.34
2018-03-30T09:59:36.999Z,81.43
2018-03-30T10:00:47.092Z,81.43
2018-03-30T10:01:57.185Z,81.59
2018-03-30T10:03:06.997Z,82.16
2018-03-30T10:04:17.068Z,82.41
2018-03-30T10:05:26.916Z,81.78
2018-03-30T10:06:36.784Z,81.4
2018-03-30T10:07:46.903Z,81.01
2018-03-30T10:08:56.985Z,80.96
2018-03-30T10:10:07.058Z,79.99
2018-03-30T10:11:16.618Z,79.27
2018-03-30T10:12:26.432Z,79.3
2018-03-30T10:13:36.504Z,79.15
2018-03-30T10:14:46.572Z,80.07
2018-03-30T10:15:56.102Z,80.32
2018-03-30T10:17:05.932Z,80.71
2018-03-30T10:18:16.027Z,80.71
2018-03-30T10:19:25.835Z,81.67
2018-03-30T10:20:35.645Z,82.01
2018-03-30T10:21:44.916Z,82.93
2018-03-30T10:22:54.732Z,82.35
2018-03-30T10:24:04.832Z,82.64
2018-03-30T10:25:14.649Z,82.54
2018-03-30T10:26:24.713Z,82.64
2018-03-30T10:27:34.511Z,82.03
2018-03-30T10:28:44.600Z,82.35
2018-03-30T10:29:53.893Z,81.97
2018-03-30T10:31:03.746Z,81.97
2018-03-30T10:32:13.826Z,81.97
2018-03-30T10:33:23.677Z,81.97
2018-03-30T10:34:33.748Z,81.72
2018-03-30T10:35:43.575Z,80.57
2018-03-30T10:36:53.388Z,79.71
2018-03-30T10:38:03.186Z,80.51
2018-03-30T10:39:13.255Z,81.19
2018-03-30T10:40:23.062Z,81.72
2018-03-30T10:41:32.870Z,81.92
2018-03-30T10:42:42.686Z,81.53
2018-03-30T10:43:52.228Z,81.34
2018-03-30T10:45:02.319Z,81.68
2018-03-30T10:46:12.417Z,83.08
2018-03-30T10:47:21.958Z,82.79
2018-03-30T10:48:31.787Z,82.75
2018-03-30T10:49:41.852Z,82.41
2018-03-30T10:50:51.931Z,82.03
2018-03-30T10:52:01.495Z,81.4
2018-03-30T10:53:11.338Z,81.68
2018-03-30T10:54:21.404Z,81.3
2018-03-30T10:55:31.475Z,81.87
2018-03-30T10:56:41.308Z,82.7
2018-03-30T10:57:51.564Z,82.56
2018-03-30T10:59:01.392Z,82.94
2018-03-30T11:00:10.672Z,82.65
2018-03-30T11:01:20.244Z,82.71
2018-03-30T11:02:29.545Z,83
2018-03-30T11:03:39.347Z,82.65
2018-03-30T11:04:49.434Z,81.7
2018-03-30T11:05:59.250Z,81.07
2018-03-30T11:07:08.563Z,80.15
2018-03-30T11:08:18.114Z,79.61
2018-03-30T11:09:27.662Z,79.65
2018-03-30T11:10:37.728Z,79.84
2018-03-30T11:11:47.523Z,79.94
2018-03-30T11:12:57.081Z,80.86
2018-03-30T11:14:07.158Z,81.05
2018-03-30T11:15:16.952Z,80.38
2018-03-30T11:16:26.772Z,79.65
2018-03-30T11:17:36.881Z,79.5
2018-03-30T11:18:46.659Z,79.98
2018-03-30T11:19:56.200Z,81.09
2018-03-30T11:21:06.324Z,81.72
2018-03-30T11:22:15.876Z,81.63
2018-03-30T11:23:25.700Z,80.86
2018-03-30T11:24:35.845Z,80.76
2018-03-30T11:25:46.079Z,80.22
2018-03-30T11:26:55.942Z,80.32
2018-03-30T11:28:05.757Z,80.36
2018-03-30T11:29:15.570Z,81.19
2018-03-30T11:30:25.644Z,81.48
2018-03-30T11:31:35.740Z,81.53
2018-03-30T11:32:45.331Z,81.82
2018-03-30T11:33:55.144Z,82.1
2018-03-30T11:35:05.266Z,82.07
2018-03-30T11:36:15.376Z,82.01
2018-03-30T11:37:25.179Z,81.53
2018-03-30T11:38:35.244Z,82.01
2018-03-30T11:39:45.047Z,81.53
2018-03-30T11:40:55.143Z,81.68
2018-03-30T11:42:05.225Z,82.31
2018-03-30T11:43:15.297Z,82.98
2018-03-30T11:44:25.190Z,83.42
2018-03-30T11:45:34.998Z,83.81
2018-03-30T11:46:44.812Z,83.67
2018-03-30T11:47:54.632Z,83
2018-03-30T11:49:04.497Z,83.09
2018-03-30T11:50:14.293Z,82.46
2018-03-30T11:51:24.108Z,82.94
2018-03-30T11:52:34.188Z,82.94
2018-03-30T11:53:44.008Z,82.21
2018-03-30T11:54:54.080Z,81.84
2018-03-30T11:56:04.215Z,81.26
2018-03-30T11:57:14.106Z,81.35
2018-03-30T11:58:24.207Z,81.78
2018-03-30T11:59:34.037Z,81.2
2018-03-30T12:00:44.103Z,80.63
2018-03-30T12:01:54.262Z,80.24
2018-03-30T12:03:04.068Z,80.76
2018-03-30T12:04:14.139Z,80.28
2018-03-30T12:05:24.189Z,79.8
2018-03-30T12:06:34.262Z,79.94
2018-03-30T12:07:44.068Z,79.55
2018-03-30T12:08:53.992Z,80.04
2018-03-30T12:10:04.061Z,80.13
2018-03-30T12:11:14.134Z,80.42
2018-03-30T12:12:24.201Z,79.94
2018-03-30T12:13:34.034Z,79.3
2018-03-30T12:14:43.315Z,78.28
2018-03-30T12:15:53.140Z,78.61
2018-03-30T12:17:03.208Z,78.9
2018-03-30T12:18:13.285Z,79.38
2018-03-30T12:19:23.393Z,80.5
2018-03-30T12:20:33.487Z,81.42
2018-03-30T12:21:43.568Z,81.67
2018-03-30T12:22:53.634Z,81.76
2018-03-30T12:24:03.719Z,82.49
2018-03-30T12:25:13.836Z,82.84
2018-03-30T12:26:23.927Z,83.03
2018-03-30T12:27:34.011Z,82.84
2018-03-30T12:28:44.236Z,82.35
2018-03-30T12:29:54.317Z,82.54
2018-03-30T12:31:04.170Z,82.4
2018-03-30T12:32:14.256Z,82.59
2018-03-30T12:33:24.330Z,82.68
2018-03-30T12:34:34.419Z,82.84
2018-03-30T12:35:44.546Z,82.84
2018-03-30T12:36:54.622Z,82.6
2018-03-30T12:38:04.701Z,83.42
2018-03-30T12:39:14.782Z,83.14
2018-03-30T12:40:24.860Z,83.42
2018-03-30T12:41:34.670Z,82.85
2018-03-30T12:42:44.535Z,82.94
2018-03-30T12:43:54.620Z,81.64
2018-03-30T12:45:04.712Z,81.49
2018-03-30T12:46:14.592Z,81.97
2018-03-30T12:47:24.578Z,81.74
2018-03-30T12:48:34.676Z,82.21
2018-03-30T12:49:44.232Z,81.74
2018-03-30T12:50:54.305Z,80.66
2018-03-30T12:52:04.143Z,79.65
2018-03-30T12:53:14.242Z,79.79
2018-03-30T12:54:24.328Z,80.27
2018-03-30T12:55:34.402Z,80.99
2018-03-30T12:56:44.207Z,81.72
2018-03-30T12:57:54.025Z,82.2
2018-03-30T12:59:03.595Z,82.26
2018-03-30T13:00:13.210Z,82.64
2018-03-30T13:01:23.294Z,82.84
2018-03-30T13:02:33.392Z,82.6
2018-03-30T13:03:43.209Z,82.89
2018-03-30T13:04:53.295Z,82.79
2018-03-30T13:06:03.383Z,82.89
2018-03-30T13:07:13.634Z,82.7
2018-03-30T13:08:23.703Z,82.51
2018-03-30T13:09:33.539Z,82.89
2018-03-30T13:10:43.607Z,83.08
2018-03-30T13:11:53.678Z,82.7
2018-03-30T13:13:03.775Z,82.45
2018-03-30T13:14:13.894Z,81.68
2018-03-30T13:15:24.064Z,80.8
2018-03-30T13:16:33.901Z,80.51
2018-03-30T13:17:43.984Z,80.61
2018-03-30T13:18:53.807Z,81.19
2018-03-30T13:20:03.931Z,81.76
2018-03-30T13:21:14.153Z,82.1
2018-03-30T13:22:24.085Z,82.01
2018-03-30T13:23:33.893Z,82.78
2018-03-30T13:24:43.744Z,82.01
2018-03-30T13:25:53.815Z,81.72
2018-03-30T13:27:03.888Z,82.45
2018-03-30T13:28:13.969Z,83.03
2018-03-30T13:29:24.056Z,83.08
2018-03-30T13:30:34.127Z,82.98
2018-03-30T13:31:43.931Z,83.18
2018-03-30T13:32:54.003Z,82.89
2018-03-30T13:34:04.087Z,82.65
2018-03-30T13:35:13.894Z,82.75
2018-03-30T13:36:24.043Z,82.65
2018-03-30T13:37:34.178Z,83.14
2018-03-30T13:38:44.018Z,82.56
2018-03-30T13:39:54.088Z,82.65
2018-03-30T13:41:03.640Z,82.65
2018-03-30T13:42:13.757Z,83.04
2018-03-30T13:43:23.827Z,82.75
2018-03-30T13:44:34.025Z,82.85
2018-03-30T13:45:44.097Z,82.37
2018-03-30T13:46:53.896Z,82.79
2018-03-30T13:48:03.714Z,81.93
2018-03-30T13:49:13.642Z,82.07
2018-03-30T13:50:22.945Z,81.82
2018-03-30T13:51:33.018Z,81.05
2018-03-30T13:52:43.109Z,80.71
2018-03-30T13:53:52.978Z,81.19
2018-03-30T13:55:02.798Z,81.43
2018-03-30T13:56:12.641Z,81.72
2018-03-30T13:57:22.458Z,81.92
2018-03-30T13:58:32.272Z,81.72
2018-03-30T13:59:42.357Z,80.86
2018-03-30T14:00:51.999Z,80.71
2018-03-30T14:02:02.081Z,80.51
2018-03-30T14:03:11.902Z,80.94
2018-03-30T14:04:21.759Z,81.76
2018-03-30T14:05:31.323Z,81.57
2018-03-30T14:06:41.206Z,82.15
2018-03-30T14:07:51.293Z,81.67
2018-03-30T14:09:01.120Z,81.19
2018-03-30T14:10:10.661Z,80.55
2018-03-30T14:11:20.478Z,80.4
2018-03-30T14:12:30.302Z,80.6
2018-03-30T14:13:40.411Z,81.27
2018-03-30T14:14:50.479Z,81.23
2018-03-30T14:16:00.571Z,81.17
2018-03-30T14:17:10.123Z,81.27
2018-03-30T14:18:19.949Z,81.84
2018-03-30T14:19:29.763Z,81.94
2018-03-30T14:20:39.584Z,80.98
2018-03-30T14:21:49.688Z,80.83
2018-03-30T14:22:59.241Z,81.3
2018-03-30T14:24:09.032Z,81.7
2018-03-30T14:25:18.837Z,82.04
2018-03-30T14:26:28.977Z,83
2018-03-30T14:27:39.174Z,82.71
2018-03-30T14:28:49.243Z,82.52
2018-03-30T14:29:59.322Z,82.81
2018-03-30T14:31:09.409Z,82.23
2018-03-30T14:32:19.471Z,82.71
2018-03-30T14:33:29.627Z,82.86
2018-03-30T14:34:39.474Z,82.96
2018-03-30T14:35:49.376Z,83.34
2018-03-30T14:36:59.178Z,82.76
2018-03-30T14:38:09.262Z,82.96
2018-03-30T14:39:19.341Z,82.57
2018-03-30T14:40:29.439Z,83.44
2018-03-30T14:41:39.240Z,82.92
2018-03-30T14:42:48.835Z,83.78
2018-03-30T14:43:58.660Z,83.84
2018-03-30T14:45:08.754Z,83.64
2018-03-30T14:46:18.836Z,84.18
2018-03-30T14:47:28.947Z,83.7
2018-03-30T14:48:38.754Z,83.7
2018-03-30T14:49:48.570Z,83.89
2018-03-30T14:50:58.682Z,83.51
2018-03-30T14:52:08.525Z,82.93
2018-03-30T14:53:18.416Z,83.16
2018-03-30T14:54:28.238Z,82.59
2018-03-30T14:55:38.343Z,82.97
2018-03-30T14:56:47.925Z,83.12
2018-03-30T14:57:58.017Z,83.03
2018-03-30T14:59:07.864Z,82.68
2018-03-30T15:00:17.933Z,82.82
2018-03-30T15:01:27.758Z,81.96
2018-03-30T15:02:37.851Z,81.71
2018-03-30T15:03:47.930Z,81.71
2018-03-30T15:04:57.761Z,81.56
2018-03-30T15:06:07.394Z,81.37
2018-03-30T15:07:17.292Z,82.23
2018-03-30T15:08:27.105Z,82.96
2018-03-30T15:09:37.252Z,82.73
2018-03-30T15:10:47.377Z,83.59
2018-03-30T15:11:57.518Z,83.74
2018-03-30T15:13:07.832Z,84.03
2018-03-30T15:14:18.011Z,84.75
2018-03-30T15:15:28.118Z,84.56
2018-03-30T15:16:38.257Z,84.66
2018-03-30T15:17:48.387Z,84.42
2018-03-30T15:18:58.512Z,84.42
2018-03-30T15:20:08.648Z,84.42
2018-03-30T15:21:18.924Z,84.52
2018-03-30T15:22:28.574Z,84.23
2018-03-30T15:23:38.646Z,84.33
2018-03-30T15:24:48.496Z,84.91
2018-03-30T15:25:58.634Z,84.14
2018-03-30T15:27:08.740Z,84.23
2018-03-30T15:28:18.586Z,84.23
2018-03-30T15:29:28.692Z,84.91
2018-03-30T15:30:38.836Z,84.67
2018-03-30T15:31:48.249Z,84.19
2018-03-30T15:32:57.909Z,84.86
2018-03-30T15:34:07.836Z,84.19